createdAt,value
2022-09-14T00:00:32.008Z,44.54
2022-09-14T00:02:59.431Z,44.68
2022-09-14T00:05:26.000Z,44.32
2022-09-14T00:07:52.482Z,44.46
2022-09-14T00:10:19.387Z,44.30
2022-09-14T00:12:46.051Z,44.46
2022-09-14T00:15:12.692Z,44.45
2022-09-14T00:17:40.106Z,44.41
2022-09-14T00:20:06.664Z,44.18
2022-09-14T00:22:33.209Z,44.47
2022-09-14T00:24:59.823Z,44.57
2022-09-14T00:27:29.513Z,44.58
2022-09-14T00:29:55.997Z,44.56
2022-09-14T00:32:22.593Z,44.57
2022-09-14T00:34:48.995Z,44.70
2022-09-14T00:37:15.485Z,44.81
2022-09-14T00:39:42.169Z,44.62
2022-09-14T00:42:08.794Z,44.67
2022-09-14T00:44:35.330Z,44.67
2022-09-14T00:47:01.894Z,45.23
2022-09-14T00:49:28.397Z,45.92
2022-09-14T00:51:54.895Z,45.59
2022-09-14T00:54:21.359Z,45.36
2022-09-14T00:56:47.756Z,45.38
2022-09-14T00:59:16.278Z,45.62
2022-09-14T01:01:42.834Z,46.46
2022-09-14T01:04:09.414Z,46.15
2022-09-14T01:06:36.180Z,45.94
2022-09-14T01:09:03.144Z,46.10
2022-09-14T01:11:29.538Z,46.64
2022-09-14T01:13:55.949Z,46.63
2022-09-14T01:16:22.622Z,46.65
2022-09-14T01:18:49.224Z,46.48
2022-09-14T01:21:15.875Z,46.24
2022-09-14T01:23:42.517Z,46.06
2022-09-14T01:26:11.142Z,46.13
2022-09-14T01:28:37.678Z,46.26
2022-09-14T01:31:04.443Z,46.28
2022-09-14T01:33:30.942Z,46.31
2022-09-14T01:35:57.502Z,46.42
2022-09-14T01:38:24.410Z,46.71
2022-09-14T01:40:50.830Z,46.16
2022-09-14T01:43:17.379Z,46.29
2022-09-14T01:45:44.285Z,46.41
2022-09-14T01:48:10.849Z,46.63
2022-09-14T01:50:38.274Z,47.33
2022-09-14T01:53:05.256Z,47.58
2022-09-14T01:55:31.629Z,47.47
2022-09-14T01:57:58.339Z,47.34
2022-09-14T02:00:25.126Z,47.33
2022-09-14T02:02:51.517Z,46.95
2022-09-14T02:05:21.006Z,47.28
2022-09-14T02:07:47.438Z,46.91
2022-09-14T02:10:13.795Z,46.88
2022-09-14T02:12:40.205Z,46.46
2022-09-14T02:15:07.221Z,46.74
2022-09-14T02:17:36.088Z,46.56
2022-09-14T02:20:02.954Z,47.07
2022-09-14T02:22:29.875Z,47.81
2022-09-14T02:24:56.547Z,47.70
2022-09-14T02:27:23.213Z,47.25
2022-09-14T02:29:49.908Z,47.43
2022-09-14T02:32:16.396Z,47.16
2022-09-14T02:34:43.166Z,46.95
2022-09-14T02:37:09.754Z,47.23
2022-09-14T02:39:36.281Z,46.93
2022-09-14T02:42:02.945Z,46.79
2022-09-14T02:44:29.483Z,46.91
2022-09-14T02:46:56.258Z,46.75
2022-09-14T02:49:23.131Z,46.58
2022-09-14T02:51:49.852Z,46.61
2022-09-14T02:54:16.391Z,46.68
2022-09-14T02:56:42.918Z,46.67
2022-09-14T02:59:09.560Z,47.07
2022-09-14T03:01:36.416Z,46.99
2022-09-14T03:04:02.952Z,46.89
2022-09-14T03:06:29.770Z,47.07
2022-09-14T03:08:56.188Z,47.13
2022-09-14T03:11:22.958Z,47.11
2022-09-14T03:13:49.678Z,47.24
2022-09-14T03:16:16.451Z,47.37
2022-09-14T03:18:42.911Z,47.47
2022-09-14T03:21:10.801Z,47.24
2022-09-14T03:23:37.395Z,47.45
2022-09-14T03:26:03.815Z,47.94
2022-09-14T03:28:30.868Z,48.19
2022-09-14T03:30:57.255Z,47.91
2022-09-14T03:33:23.775Z,48.25
2022-09-14T03:35:50.759Z,48.06
2022-09-14T03:38:17.380Z,47.73
2022-09-14T03:40:43.827Z,47.96
2022-09-14T03:43:10.299Z,47.49
2022-09-14T03:45:36.693Z,47.52
2022-09-14T03:48:03.069Z,47.68
2022-09-14T03:50:30.141Z,47.51
2022-09-14T03:52:56.621Z,48.85
2022-09-14T03:55:23.103Z,49.50
2022-09-14T03:57:49.951Z,48.50
2022-09-14T04:00:16.636Z,49.07
2022-09-14T04:02:46.138Z,49.35
2022-09-14T04:05:19.835Z,49.65
2022-09-14T04:07:48.762Z,49.41
2022-09-14T04:10:15.612Z,49.50
2022-09-14T04:12:42.206Z,49.80
2022-09-14T04:15:09.974Z,49.12
2022-09-14T04:17:38.411Z,48.67
2022-09-14T04:20:05.173Z,48.10
2022-09-14T04:22:31.945Z,47.91
2022-09-14T04:24:58.802Z,47.71
2022-09-14T04:27:25.481Z,47.65
2022-09-14T04:29:52.461Z,48.23
2022-09-14T04:32:19.104Z,48.28
2022-09-14T04:34:45.655Z,49.43
2022-09-14T04:37:12.232Z,49.78
2022-09-14T04:39:38.965Z,49.14
2022-09-14T04:42:05.859Z,49.03
2022-09-14T04:44:32.788Z,48.88
2022-09-14T04:47:00.011Z,49.64
2022-09-14T04:49:26.657Z,49.46
2022-09-14T04:51:54.420Z,49.10
2022-09-14T04:54:24.055Z,49.66
2022-09-14T04:56:50.801Z,49.14
2022-09-14T04:59:17.506Z,49.58
2022-09-14T05:01:44.116Z,50.06
2022-09-14T05:04:10.700Z,50.65
2022-09-14T05:06:37.105Z,51.92
2022-09-14T05:09:03.909Z,51.14
2022-09-14T05:11:30.316Z,50.61
2022-09-14T05:13:57.767Z,51.21
2022-09-14T05:16:29.809Z,50.64
2022-09-14T05:18:56.555Z,50.48
2022-09-14T05:21:22.971Z,50.53
2022-09-14T05:23:49.776Z,50.45
2022-09-14T05:26:16.569Z,50.32
2022-09-14T05:28:43.135Z,50.51
2022-09-14T05:31:09.872Z,50.38
2022-09-14T05:33:36.583Z,50.31
2022-09-14T05:36:02.945Z,51.89
2022-09-14T05:38:29.713Z,50.73
2022-09-14T05:40:56.192Z,50.23
2022-09-14T05:43:23.034Z,50.78
2022-09-14T05:45:49.611Z,51.47
2022-09-14T05:48:15.975Z,50.93
2022-09-14T05:50:42.373Z,50.81
2022-09-14T05:53:09.797Z,50.49
2022-09-14T05:55:36.190Z,50.63
2022-09-14T05:58:02.604Z,50.67
2022-09-14T06:00:29.204Z,51.07
2022-09-14T06:02:55.882Z,52.63
2022-09-14T06:05:22.301Z,52.69
2022-09-14T06:07:48.921Z,52.58
2022-09-14T06:10:15.724Z,51.89
2022-09-14T06:12:42.249Z,51.56
2022-09-14T06:15:09.773Z,51.83
2022-09-14T06:17:36.173Z,51.74
2022-09-14T06:20:04.906Z,51.24
2022-09-14T06:22:31.480Z,50.97
2022-09-14T06:24:58.099Z,50.86
2022-09-14T06:27:24.582Z,51.27
2022-09-14T06:29:51.192Z,50.67
2022-09-14T06:32:17.630Z,50.72
2022-09-14T06:34:44.240Z,50.84
2022-09-14T06:37:11.407Z,50.73
2022-09-14T06:39:37.856Z,51.05
2022-09-14T06:42:04.609Z,50.78
2022-09-14T06:44:33.159Z,50.64
2022-09-14T06:46:59.795Z,50.68
2022-09-14T06:49:28.479Z,50.52
2022-09-14T06:51:55.215Z,50.58
2022-09-14T06:54:21.546Z,50.44
2022-09-14T06:56:47.930Z,50.93
2022-09-14T06:59:15.650Z,50.66
2022-09-14T07:01:42.146Z,50.70
2022-09-14T07:04:08.710Z,51.76
2022-09-14T07:06:35.428Z,51.04
2022-09-14T07:09:02.783Z,51.10
2022-09-14T07:11:29.150Z,51.07
2022-09-14T07:13:56.401Z,50.88
2022-09-14T07:16:22.764Z,50.89
2022-09-14T07:18:49.126Z,51.09
2022-09-14T07:21:15.892Z,51.01
2022-09-14T07:23:42.595Z,51.45
2022-09-14T07:26:09.354Z,51.15
2022-09-14T07:28:35.868Z,51.05
2022-09-14T07:31:02.401Z,51.10
2022-09-14T07:33:29.880Z,51.21
2022-09-14T07:35:57.196Z,52.65
2022-09-14T07:38:35.790Z,51.97
2022-09-14T07:41:10.308Z,51.83
2022-09-14T07:43:36.687Z,51.96
2022-09-14T07:46:04.647Z,51.32
2022-09-14T07:48:31.081Z,50.97
2022-09-14T07:50:57.948Z,50.93
2022-09-14T07:53:24.576Z,50.61
2022-09-14T07:55:53.810Z,50.98
2022-09-14T07:58:20.232Z,50.78
2022-09-14T08:00:46.681Z,51.21
2022-09-14T08:03:13.351Z,51.40
2022-09-14T08:05:40.135Z,50.52
2022-09-14T08:08:07.661Z,50.05
2022-09-14T08:10:34.588Z,49.92
2022-09-14T08:13:01.214Z,49.95
2022-09-14T08:15:28.658Z,49.56
2022-09-14T08:17:55.400Z,49.85
2022-09-14T08:20:21.863Z,49.80
2022-09-14T08:22:48.324Z,49.98
2022-09-14T08:25:14.936Z,50.01
2022-09-14T08:27:41.373Z,49.71
2022-09-14T08:30:10.452Z,49.13
2022-09-14T08:32:37.055Z,49.08
2022-09-14T08:35:03.460Z,48.99
2022-09-14T08:37:29.923Z,49.23
2022-09-14T08:39:56.790Z,49.48
2022-09-14T08:42:25.488Z,49.66
2022-09-14T08:44:51.862Z,48.94
2022-09-14T08:47:18.435Z,48.69
2022-09-14T08:49:45.854Z,48.54
2022-09-14T08:52:12.412Z,49.40
2022-09-14T08:54:39.096Z,48.30
2022-09-14T08:57:05.630Z,48.16
2022-09-14T08:59:32.357Z,48.03
2022-09-14T09:01:59.055Z,48.51
2022-09-14T09:04:26.496Z,48.37
2022-09-14T09:06:52.882Z,48.39
2022-09-14T09:09:19.592Z,48.20
2022-09-14T09:11:45.980Z,47.93
2022-09-14T09:14:15.093Z,48.12
2022-09-14T09:16:44.950Z,48.74
2022-09-14T09:19:11.362Z,47.99
2022-09-14T09:21:38.803Z,47.89
2022-09-14T09:24:05.257Z,48.26
2022-09-14T09:26:31.668Z,48.56
2022-09-14T09:28:58.029Z,48.07
2022-09-14T09:31:24.555Z,48.09
2022-09-14T09:33:51.045Z,47.89
2022-09-14T09:36:17.522Z,47.84
2022-09-14T09:38:43.954Z,47.73
2022-09-14T09:41:10.378Z,47.69
2022-09-14T09:43:49.435Z,47.86
2022-09-14T09:46:21.137Z,47.13
2022-09-14T09:48:47.665Z,47.05
2022-09-14T09:51:14.131Z,47.21
2022-09-14T09:53:40.867Z,46.96
2022-09-14T09:56:08.381Z,46.24
2022-09-14T09:58:34.958Z,46.48
2022-09-14T10:01:01.465Z,46.19
2022-09-14T10:03:29.037Z,46.03
2022-09-14T10:05:55.692Z,46.12
2022-09-14T10:08:22.227Z,46.40
2022-09-14T10:10:48.672Z,46.47
2022-09-14T10:13:15.053Z,46.57
2022-09-14T10:15:41.718Z,47.05
2022-09-14T10:18:08.204Z,47.21
2022-09-14T10:20:34.609Z,47.17
2022-09-14T10:23:01.275Z,47.07
2022-09-14T10:25:28.707Z,47.16
2022-09-14T10:27:56.127Z,46.59
2022-09-14T10:30:23.625Z,47.31
2022-09-14T10:32:50.061Z,47.03
2022-09-14T10:35:16.647Z,47.48
2022-09-14T10:37:43.182Z,47.50
2022-09-14T10:40:10.125Z,47.16
2022-09-14T10:42:36.576Z,48.17
2022-09-14T10:45:03.368Z,48.15
2022-09-14T10:47:29.818Z,48.27
2022-09-14T10:49:56.279Z,48.85
2022-09-14T10:52:22.988Z,48.11
2022-09-14T10:54:49.421Z,48.55
2022-09-14T10:57:15.843Z,48.52
2022-09-14T10:59:42.321Z,48.31
2022-09-14T11:02:08.794Z,48.17
2022-09-14T11:04:35.295Z,48.39
2022-09-14T11:07:01.794Z,48.51
2022-09-14T11:09:28.214Z,48.50
2022-09-14T11:11:55.862Z,48.71
2022-09-14T11:14:22.664Z,48.95
2022-09-14T11:16:49.014Z,49.05
2022-09-14T11:19:15.500Z,49.54
2022-09-14T11:21:41.963Z,49.53
2022-09-14T11:24:08.317Z,49.45
2022-09-14T11:26:36.456Z,48.93
2022-09-14T11:29:05.597Z,49.85
2022-09-14T11:31:32.107Z,49.92
2022-09-14T11:33:58.701Z,49.87
2022-09-14T11:36:25.556Z,49.10
2022-09-14T11:38:52.096Z,49.22
2022-09-14T11:41:18.467Z,49.17
2022-09-14T11:43:46.230Z,49.80
2022-09-14T11:46:12.879Z,48.48
2022-09-14T11:48:42.786Z,49.04
2022-09-14T11:51:13.098Z,48.78
2022-09-14T11:53:39.587Z,47.74
2022-09-14T11:56:07.181Z,47.99
2022-09-14T11:58:34.448Z,47.93
2022-09-14T12:01:03.900Z,48.35
2022-09-14T12:03:31.495Z,48.02
2022-09-14T12:05:58.958Z,48.00
2022-09-14T12:08:25.668Z,47.28
2022-09-14T12:10:52.110Z,47.36
2022-09-14T12:13:21.042Z,47.00
2022-09-14T12:15:47.750Z,46.44
2022-09-14T12:18:14.569Z,46.71
2022-09-14T12:20:41.219Z,47.11
2022-09-14T12:23:07.773Z,46.94
2022-09-14T12:25:34.283Z,46.03
2022-09-14T12:28:02.615Z,45.92
2022-09-14T12:30:29.878Z,46.11
2022-09-14T12:32:56.715Z,45.52
2022-09-14T12:35:23.408Z,44.73
2022-09-14T12:37:50.194Z,42.38
2022-09-14T12:40:16.780Z,43.49
2022-09-14T12:42:43.517Z,43.78
2022-09-14T12:45:09.912Z,41.96
2022-09-14T12:47:36.475Z,42.31
2022-09-14T12:50:03.139Z,42.80
2022-09-14T12:52:29.543Z,41.73
2022-09-14T12:54:59.249Z,42.56
2022-09-14T12:57:25.804Z,42.62
2022-09-14T12:59:52.353Z,42.84
2022-09-14T13:02:18.825Z,41.95
2022-09-14T13:04:45.396Z,41.44
2022-09-14T13:07:11.771Z,41.84
2022-09-14T13:09:38.780Z,41.33
2022-09-14T13:12:05.965Z,40.45
2022-09-14T13:14:32.396Z,41.71
2022-09-14T13:16:59.058Z,41.50
2022-09-14T13:19:25.499Z,41.96
2022-09-14T13:21:51.919Z,41.85
2022-09-14T13:24:18.578Z,41.95
2022-09-14T13:26:45.177Z,41.88
2022-09-14T13:29:11.545Z,41.23
2022-09-14T13:31:38.061Z,41.30
2022-09-14T13:34:04.733Z,41.80
2022-09-14T13:36:33.954Z,42.19
2022-09-14T13:41:55.193Z,41.63
2022-09-14T13:44:21.924Z,41.41
2022-09-14T13:46:48.579Z,41.68
2022-09-14T13:49:21.056Z,42.05
2022-09-14T13:51:50.758Z,41.70
2022-09-14T13:54:17.388Z,42.74
2022-09-14T13:56:48.261Z,41.92
2022-09-14T13:59:14.646Z,41.62
2022-09-14T14:01:41.556Z,40.40
2022-09-14T14:04:08.382Z,40.77
2022-09-14T14:06:37.119Z,40.28
2022-09-14T14:09:03.975Z,41.01
2022-09-14T14:11:30.417Z,41.24
2022-09-14T14:13:56.961Z,41.53
2022-09-14T14:16:23.861Z,41.69
2022-09-14T14:18:50.414Z,41.22
2022-09-14T14:21:19.449Z,41.39
2022-09-14T14:24:09.601Z,41.02
2022-09-14T14:26:35.160Z,40.71
2022-09-14T14:29:02.233Z,40.74
2022-09-14T14:31:28.687Z,40.90
2022-09-14T14:33:55.253Z,40.14
2022-09-14T14:36:22.384Z,40.42
2022-09-14T14:38:49.029Z,39.93
2022-09-14T14:41:15.443Z,40.45
2022-09-14T14:43:42.536Z,40.07
2022-09-14T14:46:09.083Z,40.12
2022-09-14T14:48:35.606Z,39.71
2022-09-14T14:51:02.533Z,39.75
2022-09-14T14:53:28.960Z,40.40
2022-09-14T14:55:55.353Z,40.02
2022-09-14T14:58:24.154Z,40.15
2022-09-14T15:00:50.820Z,40.38
2022-09-14T15:03:17.321Z,40.56
2022-09-14T15:05:44.462Z,40.31
2022-09-14T15:08:11.327Z,40.93
2022-09-14T15:10:37.758Z,40.63
2022-09-14T15:13:04.774Z,40.85
2022-09-14T15:15:31.388Z,40.24
2022-09-14T15:17:57.848Z,41.35
2022-09-14T15:20:24.217Z,41.68
2022-09-14T15:22:50.801Z,40.01
2022-09-14T15:25:17.218Z,40.47
2022-09-14T15:27:43.721Z,41.13
2022-09-14T15:30:10.107Z,41.76
2022-09-14T15:32:37.512Z,41.61
2022-09-14T15:35:04.833Z,41.35
2022-09-14T15:37:31.314Z,41.38
2022-09-14T15:39:57.753Z,41.53
2022-09-14T15:42:24.346Z,41.34
2022-09-14T15:44:50.791Z,41.88
2022-09-14T15:47:17.255Z,42.28
2022-09-14T15:49:44.331Z,42.34
2022-09-14T15:52:10.902Z,42.16
2022-09-14T15:54:37.566Z,42.06
2022-09-14T15:57:05.237Z,42.51
2022-09-14T15:59:34.464Z,42.57
2022-09-14T16:02:00.911Z,42.22
2022-09-14T16:04:40.595Z,41.91
2022-09-14T16:07:07.523Z,42.16
2022-09-14T16:09:34.110Z,42.50
2022-09-14T16:12:02.070Z,42.63
2022-09-14T16:14:28.634Z,42.90
2022-09-14T16:16:55.450Z,43.01
2022-09-14T16:19:22.170Z,43.29
2022-09-14T16:21:53.475Z,43.34
2022-09-14T16:24:20.416Z,43.44
2022-09-14T16:26:46.819Z,43.56
2022-09-14T16:29:13.282Z,43.76
2022-09-14T16:31:40.297Z,44.11
2022-09-14T16:34:06.745Z,44.53
2022-09-14T16:36:33.149Z,44.26
2022-09-14T16:38:59.918Z,44.47
2022-09-14T16:41:26.422Z,45.02
2022-09-14T16:43:52.754Z,45.29
2022-09-14T16:46:19.510Z,44.34
2022-09-14T16:48:45.987Z,43.39
2022-09-14T16:51:12.342Z,42.84
2022-09-14T16:53:41.242Z,42.39
2022-09-14T16:56:07.722Z,42.52
2022-09-14T16:58:34.349Z,42.61
2022-09-14T17:01:00.801Z,42.86
2022-09-14T17:03:31.074Z,43.52
2022-09-14T17:05:58.126Z,43.45
2022-09-14T17:08:24.583Z,43.87
2022-09-14T17:10:51.388Z,44.14
2022-09-14T17:13:17.838Z,43.92
2022-09-14T17:15:47.416Z,44.25
2022-09-14T17:18:13.809Z,44.02
2022-09-14T17:20:41.297Z,43.71
2022-09-14T17:23:08.092Z,43.92
2022-09-14T17:25:34.499Z,44.01
2022-09-14T17:28:00.903Z,44.00
2022-09-14T17:30:27.548Z,44.00
2022-09-14T17:32:54.293Z,43.98
2022-09-14T17:35:21.910Z,44.37
2022-09-14T17:37:48.766Z,44.55
2022-09-14T17:40:17.835Z,44.85
2022-09-14T17:42:45.231Z,45.23
2022-09-14T17:45:11.737Z,45.94
2022-09-14T17:47:38.080Z,45.68
2022-09-14T17:50:04.493Z,45.86
2022-09-14T17:52:31.512Z,46.54
2022-09-14T17:54:57.989Z,46.69
2022-09-14T17:57:25.368Z,46.81
2022-09-14T17:59:53.001Z,46.89
2022-09-14T18:02:19.596Z,46.40
2022-09-14T18:04:48.596Z,46.90
2022-09-14T18:07:15.378Z,47.02
2022-09-14T18:09:43.028Z,46.81
2022-09-14T18:12:12.211Z,48.64
2022-09-14T18:14:41.420Z,48.28
2022-09-14T18:17:08.791Z,48.77
2022-09-14T18:19:35.936Z,48.61
2022-09-14T18:22:02.909Z,48.44
2022-09-14T18:24:29.929Z,48.13
2022-09-14T18:26:56.918Z,48.77
2022-09-14T18:29:24.666Z,47.95
2022-09-14T18:31:51.584Z,49.03
2022-09-14T18:34:18.721Z,48.26
2022-09-14T18:36:46.688Z,48.18
2022-09-14T18:39:13.149Z,47.93
2022-09-14T18:41:39.933Z,47.82
2022-09-14T18:44:06.865Z,48.39
2022-09-14T18:46:33.726Z,48.11
2022-09-14T18:49:03.006Z,48.24
2022-09-14T18:51:29.741Z,48.54
2022-09-14T18:53:56.502Z,48.86
2022-09-14T18:56:23.459Z,48.99
2022-09-14T18:58:51.311Z,49.92
2022-09-14T19:01:17.823Z,49.93
2022-09-14T19:03:47.781Z,49.93
2022-09-14T19:06:14.543Z,48.97
2022-09-14T19:08:42.364Z,48.98
2022-09-14T19:11:18.350Z,49.95
2022-09-14T19:13:45.195Z,49.49
2022-09-14T19:16:13.064Z,49.53
2022-09-14T19:18:40.963Z,48.93
2022-09-14T19:21:08.287Z,48.93
2022-09-14T19:23:34.838Z,48.84
2022-09-14T19:26:01.744Z,48.71
2022-09-14T19:28:30.734Z,48.48
2022-09-14T19:30:58.393Z,48.43
2022-09-14T19:33:26.227Z,48.37
2022-09-14T19:35:54.039Z,48.58
2022-09-14T19:38:23.210Z,49.74
2022-09-14T19:40:50.079Z,53.58
2022-09-14T19:43:17.620Z,68.18
2022-09-14T19:45:44.841Z,67.92
2022-09-14T19:48:12.803Z,65.28
2022-09-14T19:50:39.809Z,74.50
2022-09-14T19:53:06.594Z,71.71
2022-09-14T19:55:33.448Z,74.72
2022-09-14T19:58:00.417Z,72.88
2022-09-14T20:00:27.334Z,78.31
2022-09-14T20:02:54.149Z,77.77
2022-09-14T20:05:21.067Z,80.80
2022-09-14T20:07:49.307Z,83.04
2022-09-14T20:10:18.482Z,84.44
2022-09-14T20:12:45.228Z,82.89
2022-09-14T20:15:12.022Z,84.11
2022-09-14T20:17:38.846Z,84.22
2022-09-14T20:20:05.731Z,83.63
2022-09-14T20:22:32.537Z,83.11
2022-09-14T20:24:59.238Z,83.72
2022-09-14T20:27:26.036Z,83.38
2022-09-14T20:29:52.511Z,82.72
2022-09-14T20:32:20.333Z,82.60
2022-09-14T20:34:48.329Z,82.54
2022-09-14T20:37:15.124Z,82.02
2022-09-14T20:39:41.845Z,80.86
2022-09-14T20:42:08.413Z,78.63
2022-09-14T20:44:35.252Z,72.81
2022-09-14T20:47:02.105Z,72.63
2022-09-14T20:49:28.616Z,72.01
2022-09-14T20:51:55.224Z,71.73
2022-09-14T20:54:21.626Z,71.03
2022-09-14T20:56:48.110Z,70.11
2022-09-14T20:59:14.562Z,69.42
2022-09-14T21:01:41.269Z,69.08
2022-09-14T21:04:08.419Z,70.24
2022-09-14T21:06:34.978Z,69.12
2022-09-14T21:09:01.451Z,67.89
2022-09-14T21:11:28.170Z,66.94
2022-09-14T21:13:54.677Z,65.66
2022-09-14T21:16:23.748Z,65.66
2022-09-14T21:18:50.804Z,64.93
2022-09-14T21:21:17.266Z,65.85
2022-09-14T21:23:45.225Z,65.81
2022-09-14T21:26:11.941Z,65.18
2022-09-14T21:28:38.456Z,64.06
2022-09-14T21:31:05.584Z,64.88
2022-09-14T21:33:33.326Z,63.65
2022-09-14T21:35:59.725Z,61.61
2022-09-14T21:38:26.112Z,61.34
2022-09-14T21:40:52.683Z,59.62
2022-09-14T21:43:19.121Z,57.86
2022-09-14T21:45:45.874Z,56.82
2022-09-14T21:48:12.377Z,57.40
2022-09-14T21:50:38.862Z,56.31
2022-09-14T21:53:06.592Z,56.19
2022-09-14T21:55:33.515Z,56.35
2022-09-14T21:58:00.579Z,55.81
2022-09-14T22:00:30.772Z,55.10
2022-09-14T22:03:00.098Z,55.47
2022-09-14T22:05:26.745Z,55.46
2022-09-14T22:07:53.263Z,55.80
2022-09-14T22:10:23.010Z,55.26
2022-09-14T22:12:50.008Z,56.53
2022-09-14T22:15:16.515Z,55.36
2022-09-14T22:17:43.247Z,54.90
2022-09-14T22:20:09.694Z,55.28
2022-09-14T22:22:36.153Z,55.46
2022-09-14T22:25:03.446Z,55.63
2022-09-14T22:27:30.942Z,55.14
2022-09-14T22:29:57.361Z,55.42
2022-09-14T22:32:24.462Z,55.21
2022-09-14T22:34:51.943Z,55.87
2022-09-14T22:37:18.340Z,55.27
2022-09-14T22:39:45.154Z,55.37
2022-09-14T22:42:11.711Z,55.83
2022-09-14T22:44:38.083Z,55.72
2022-09-14T22:47:05.142Z,55.15
2022-09-14T22:49:31.969Z,54.90
2022-09-14T22:51:58.758Z,54.47
2022-09-14T22:54:27.749Z,55.33
2022-09-14T22:56:54.403Z,55.50
2022-09-14T22:59:20.834Z,55.33
2022-09-14T23:01:47.512Z,56.01
2022-09-14T23:04:14.294Z,55.70
2022-09-14T23:06:40.774Z,55.98
2022-09-14T23:09:07.427Z,55.85
2022-09-14T23:11:33.950Z,56.31
2022-09-14T23:14:00.410Z,56.24
2022-09-14T23:16:26.950Z,56.76
2022-09-14T23:18:53.636Z,56.07
2022-09-14T23:21:20.434Z,56.31
2022-09-14T23:23:47.243Z,56.55
2022-09-14T23:26:14.085Z,56.13
2022-09-14T23:28:40.707Z,56.73
2022-09-14T23:31:08.189Z,58.74
2022-09-14T23:33:34.667Z,57.33
2022-09-14T23:36:01.242Z,57.43
2022-09-14T23:38:27.827Z,56.83
2022-09-14T23:40:54.229Z,57.07
2022-09-14T23:43:20.647Z,57.67
2022-09-14T23:45:48.010Z,56.70
2022-09-14T23:48:14.962Z,56.63
2022-09-14T23:50:41.531Z,57.36
2022-09-14T23:53:12.249Z,57.66
2022-09-14T23:55:38.882Z,58.39
2022-09-14T23:58:06.402Z,57.13
